Time;durP1;ratioP1;P1;durP2;ratioP2;P2;SDS_P1;SDS_P2;PMS_P1;PMS_P2;Temp;Humidity;BMP_temperature;BMP_pressure;BME280_temperature;BME280_humidity;BME280_pressure;Samples;Min_cycle;Max_cycle;Signal;HPM_P1;HPM_P2
2023/05/27 00:00:50;;;;;;;;;13.33;13.00;;;;;19.35;43.04;101573.63;4996251;28;45847;-55
2023/05/27 00:03:16;;;;;;;;;10.33;10.33;;;;;19.34;43.25;101573.69;4996217;28;45385;-54
2023/05/27 00:05:41;;;;;;;;;11.00;9.00;;;;;19.34;43.66;101576.38;4996128;28;45451;-54
2023/05/27 00:08:06;;;;;;;;;10.67;10.67;;;;;19.33;43.02;101569.31;4995033;28;45432;-54
2023/05/27 00:10:32;;;;;;;;;12.67;11.67;;;;;19.33;43.56;101566.66;4996231;28;45470;-54
2023/05/27 00:12:57;;;;;;;;;12.33;10.67;;;;;19.32;43.24;101571.13;4996018;28;45545;-57
2023/05/27 00:15:22;;;;;;;;;11.33;11.33;;;;;19.29;43.41;101565.09;4995567;28;50692;-55
2023/05/27 00:17:49;;;;;;;;;17.33;16.67;;;;;19.19;43.63;101557.63;4996122;28;45489;-56
2023/05/27 00:20:15;;;;;;;;;16.00;14.00;;;;;19.27;43.12;101570.53;4995888;28;45442;-56
2023/05/27 00:22:41;;;;;;;;;10.00;9.67;;;;;19.22;43.11;101556.59;4996006;28;45598;-56
2023/05/27 00:25:07;;;;;;;;;15.33;13.33;;;;;19.20;42.84;101561.16;4995694;28;45430;-55
2023/05/27 00:27:33;;;;;;;;;11.67;10.33;;;;;19.20;43.35;101570.00;4995606;28;45381;-53
2023/05/27 00:29:58;;;;;;;;;11.00;11.00;;;;;19.15;43.49;101560.53;4995967;28;45479;-54
2023/05/27 00:32:24;;;;;;;;;12.33;11.33;;;;;19.16;42.53;101562.28;4995860;28;45487;-57
2023/05/27 00:34:49;;;;;;;;;10.00;10.00;;;;;19.12;43.49;101560.72;4995764;28;45475;-54
2023/05/27 00:37:15;;;;;;;;;13.00;10.67;;;;;19.11;42.93;101554.53;4995471;28;45562;-58
2023/05/27 00:39:40;;;;;;;;;13.00;11.67;;;;;19.07;43.33;101542.28;4995990;28;45411;-56
2023/05/27 00:42:07;;;;;;;;;10.67;10.33;;;;;19.07;43.16;101544.09;4996230;28;45433;-56
2023/05/27 00:44:32;;;;;;;;;12.33;11.67;;;;;19.07;43.12;101549.44;4995566;28;46482;-56
2023/05/27 00:46:57;;;;;;;;;12.67;11.33;;;;;19.10;43.34;101543.94;4995799;28;45500;-55
2023/05/27 00:49:25;;;;;;;;;9.33;9.00;;;;;19.11;43.11;101559.00;4995481;28;45980;-58
2023/05/27 00:51:50;;;;;;;;;13.33;10.33;;;;;19.07;42.99;101554.78;4995692;28;45432;-53
2023/05/27 00:54:16;;;;;;;;;9.33;9.33;;;;;18.98;42.77;101543.69;4995153;28;45922;-54
2023/05/27 00:56:41;;;;;;;;;10.33;9.33;;;;;18.97;42.73;101544.63;4995692;28;45522;-55
2023/05/27 00:59:07;;;;;;;;;11.33;10.00;;;;;18.98;43.24;101541.00;4995912;28;45521;-59
2023/05/27 01:01:36;;;;;;;;;14.33;12.00;;;;;18.95;42.88;101530.53;4995614;28;45693;-58
2023/05/27 01:04:02;;;;;;;;;11.67;9.67;;;;;18.93;42.78;101537.75;4995506;28;45612;-54
2023/05/27 01:06:48;;;;;;;;;12.00;10.67;;;;;18.96;43.11;101540.22;4995399;28;45392;-54
2023/05/27 01:09:38;;;;;;;;;8.00;8.00;;;;;18.93;42.87;101534.22;4995666;28;45435;-55
2023/05/27 01:12:07;;;;;;;;;12.00;11.00;;;;;18.91;42.88;101531.66;4992866;28;45479;-57
2023/05/27 01:14:35;;;;;;;;;11.67;10.67;;;;;18.85;43.08;101523.13;4995384;28;45506;-56
2023/05/27 01:17:03;;;;;;;;;13.67;12.33;;;;;18.88;43.28;101539.78;4995177;28;45482;-56
2023/05/27 01:19:44;;;;;;;;;11.00;11.00;;;;;18.84;43.40;101542.72;4987120;28;45545;-55
2023/05/27 01:22:13;;;;;;;;;13.00;12.00;;;;;18.81;42.83;101525.09;4995312;28;46167;-53
2023/05/27 01:24:38;;;;;;;;;13.00;10.33;;;;;18.85;43.12;101528.44;4994979;28;45496;-55
2023/05/27 01:27:04;;;;;;;;;10.00;9.67;;;;;18.86;42.71;101531.03;4995106;28;45478;-56
2023/05/27 01:29:30;;;;;;;;;10.33;10.33;;;;;18.78;43.03;101527.94;4977420;28;45418;-55
2023/05/27 01:32:01;;;;;;;;;13.33;11.00;;;;;18.82;42.65;101541.94;4995408;28;45508;-57
2023/05/27 01:35:02;;;;;;;;;12.00;10.33;;;;;18.67;43.22;101533.81;4995265;28;45454;-56
2023/05/27 01:37:33;;;;;;;;;12.67;10.67;;;;;18.64;43.16;101541.97;4992747;28;73972;-52
2023/05/27 01:39:59;;;;;;;;;11.67;11.67;;;;;18.67;42.81;101536.50;4995070;28;45479;-55
2023/05/27 01:42:25;;;;;;;;;13.00;12.00;;;;;18.58;42.77;101536.97;4995727;28;45626;-54
2023/05/27 01:44:51;;;;;;;;;9.67;9.00;;;;;18.59;42.74;101536.03;4993671;28;46616;-56
2023/05/27 01:47:16;;;;;;;;;8.33;8.33;;;;;18.55;42.83;101529.16;4995042;28;45559;-52
2023/05/27 01:49:42;;;;;;;;;10.33;9.33;;;;;18.49;42.71;101525.00;4995052;28;45523;-55
2023/05/27 01:52:08;;;;;;;;;8.33;8.33;;;;;18.55;43.01;101529.16;4994908;28;48020;-57
2023/05/27 01:54:34;;;;;;;;;12.67;9.00;;;;;18.50;43.00;101517.88;4994741;28;46384;-57
2023/05/27 01:56:59;;;;;;;;;10.00;7.67;;;;;18.48;42.88;101527.75;4994528;28;45476;-54
2023/05/27 01:59:25;;;;;;;;;10.67;8.00;;;;;18.47;42.81;101520.72;4995178;28;45487;-55
2023/05/27 02:01:51;;;;;;;;;9.33;7.00;;;;;18.49;42.97;101529.47;4994789;28;45487;-55
2023/05/27 02:04:17;;;;;;;;;9.33;9.00;;;;;18.46;42.50;101524.31;4994826;28;45500;-58
2023/05/27 02:06:42;;;;;;;;;8.67;8.67;;;;;18.46;43.09;101521.66;4994597;28;45497;-56
2023/05/27 02:09:07;;;;;;;;;10.33;7.00;;;;;18.37;42.94;101517.66;4995048;28;45382;-57
2023/05/27 02:11:33;;;;;;;;;11.67;10.00;;;;;18.43;43.17;101525.34;4994981;28;45697;-57
2023/05/27 02:13:59;;;;;;;;;7.67;7.00;;;;;18.33;42.69;101506.31;4994459;28;48347;-57
2023/05/27 02:16:25;;;;;;;;;9.67;7.67;;;;;18.37;42.75;101522.13;4994769;28;45413;-53
2023/05/27 02:18:50;;;;;;;;;7.67;7.67;;;;;18.25;43.00;101511.19;4994698;28;45468;-55
2023/05/27 02:21:16;;;;;;;;;10.67;10.67;;;;;18.24;43.01;101511.25;4994733;28;45500;-55
2023/05/27 02:23:41;;;;;;;;;7.00;7.00;;;;;18.27;42.72;101521.78;4994349;28;45590;-54
2023/05/27 02:26:07;;;;;;;;;7.00;7.00;;;;;18.24;42.91;101521.91;4994309;28;51799;-55
2023/05/27 02:28:32;;;;;;;;;9.33;8.33;;;;;18.22;42.71;101523.81;4994554;28;45357;-55
2023/05/27 02:30:59;;;;;;;;;7.67;6.67;;;;;18.18;42.84;101524.91;4995502;28;45381;-51
2023/05/27 02:33:24;;;;;;;;;9.33;7.67;;;;;18.16;42.83;101519.69;4997766;28;45668;-54
2023/05/27 02:35:49;;;;;;;;;9.00;9.00;;;;;18.17;42.36;101529.38;4996379;28;45692;-57
2023/05/27 02:38:15;;;;;;;;;9.00;9.00;;;;;18.10;42.66;101526.16;4997955;28;45965;-55
2023/05/27 02:40:40;;;;;;;;;10.67;9.00;;;;;18.09;42.54;101523.59;4998414;28;45523;-54
2023/05/27 02:43:05;;;;;;;;;10.67;6.67;;;;;18.03;42.66;101521.25;4997452;28;45434;-57
2023/05/27 02:45:31;;;;;;;;;5.00;5.00;;;;;18.06;43.21;101518.44;4997903;28;45349;-56
2023/05/27 02:48:00;;;;;;;;;8.00;8.00;;;;;18.05;42.64;101508.72;4996248;28;45433;-57
2023/05/27 02:50:26;;;;;;;;;7.00;6.67;;;;;18.02;42.61;101501.75;4997746;28;45486;-56
2023/05/27 02:52:51;;;;;;;;;10.00;7.00;;;;;18.07;42.21;101502.38;4997214;28;45442;-54
2023/05/27 02:55:17;;;;;;;;;6.00;6.00;;;;;18.02;42.46;101500.88;4997552;28;45479;-57
2023/05/27 02:57:42;;;;;;;;;9.00;9.00;;;;;17.96;42.16;101495.91;4997628;28;45464;-56
2023/05/27 03:00:09;;;;;;;;;9.00;9.00;;;;;17.96;42.34;101507.38;4997517;28;45528;-57
2023/05/27 03:02:34;;;;;;;;;7.00;6.33;;;;;17.93;42.26;101501.38;4997054;28;46079;-56
2023/05/27 03:05:01;;;;;;;;;9.00;8.00;;;;;17.91;42.50;101490.78;4996947;28;45474;-54
2023/05/27 03:07:30;;;;;;;;;7.33;7.00;;;;;17.90;42.05;101491.75;4996156;28;45491;-58
2023/05/27 03:09:56;;;;;;;;;10.00;10.00;;;;;17.88;42.43;101497.13;4997211;28;45484;-52
2023/05/27 03:12:22;;;;;;;;;7.00;7.00;;;;;17.81;42.26;101498.41;4997320;28;45390;-55
2023/05/27 03:14:49;;;;;;;;;10.00;7.00;;;;;17.67;42.36;101487.56;4997005;28;45424;-56
2023/05/27 03:17:14;;;;;;;;;6.33;6.33;;;;;17.64;42.13;101496.56;4979533;28;45474;-56
2023/05/27 03:19:39;;;;;;;;;9.00;8.00;;;;;17.67;42.18;101504.38;4997377;28;45639;-54
2023/05/27 03:22:06;;;;;;;;;9.00;9.00;;;;;17.66;41.95;101502.66;4996747;28;54390;-55
2023/05/27 03:24:31;;;;;;;;;10.00;7.67;;;;;17.61;42.17;101501.19;4997071;28;45496;-55
2023/05/27 03:26:57;;;;;;;;;7.33;6.67;;;;;17.56;42.17;101509.38;4997140;28;45515;-55
2023/05/27 03:29:22;;;;;;;;;7.00;5.67;;;;;17.57;42.29;101505.81;4996853;28;45350;-55
2023/05/27 03:31:48;;;;;;;;;7.00;5.00;;;;;17.61;42.10;101501.19;4996449;28;66526;-54
2023/05/27 03:34:13;;;;;;;;;6.33;6.33;;;;;17.63;41.68;101496.66;4997086;28;45392;-56
2023/05/27 03:36:38;;;;;;;;;9.67;9.67;;;;;17.66;41.72;101504.47;4997050;28;45488;-53
2023/05/27 03:39:04;;;;;;;;;9.33;8.67;;;;;17.62;41.64;101498.47;4996889;28;45552;-55
2023/05/27 03:41:30;;;;;;;;;6.00;6.00;;;;;17.60;41.79;101496.81;4979586;28;46938;-57
2023/05/27 03:43:56;;;;;;;;;8.00;7.00;;;;;17.53;41.72;101496.25;4996025;28;45477;-57
2023/05/27 03:46:21;;;;;;;;;7.33;7.33;;;;;17.59;42.08;101497.72;4996762;28;45448;-56
2023/05/27 03:48:46;;;;;;;;;8.67;7.67;;;;;17.63;41.74;101494.84;4996907;28;45664;-57
2023/05/27 03:51:12;;;;;;;;;7.33;7.00;;;;;17.62;42.04;101493.13;4996604;28;46266;-54
2023/05/27 03:53:37;;;;;;;;;7.00;6.33;;;;;17.57;41.46;101500.47;4996672;28;45394;-53
2023/05/27 03:56:03;;;;;;;;;9.67;8.33;;;;;17.52;41.61;101499.00;4996741;28;45528;-57
2023/05/27 03:58:28;;;;;;;;;6.00;5.00;;;;;17.51;41.77;101510.56;4996577;28;45614;-56
2023/05/27 04:00:54;;;;;;;;;7.00;7.00;;;;;17.43;41.70;101498.50;4996458;28;46453;-56
2023/05/27 04:03:20;;;;;;;;;11.00;9.00;;;;;17.48;41.74;101494.75;4996421;28;45617;-55
2023/05/27 04:05:45;;;;;;;;;9.33;6.67;;;;;17.45;41.70;101501.09;4996242;28;45314;-54
2023/05/27 04:08:13;;;;;;;;;9.33;9.33;;;;;17.49;41.94;101504.44;4996470;28;45417;-52
2023/05/27 04:10:38;;;;;;;;;6.67;6.00;;;;;17.49;41.81;101505.34;4996243;28;45314;-57
2023/05/27 04:13:04;;;;;;;;;9.67;6.67;;;;;17.51;41.99;101508.75;4995903;28;45428;-53
2023/05/27 04:15:29;;;;;;;;;8.67;8.67;;;;;17.47;41.45;101495.69;4996382;28;45562;-56
2023/05/27 04:17:55;;;;;;;;;11.00;8.00;;;;;17.49;41.83;101507.09;4996227;28;45358;-57
2023/05/27 04:20:21;;;;;;;;;7.00;6.00;;;;;17.48;41.74;101505.38;4994782;28;45621;-57
2023/05/27 04:22:47;;;;;;;;;6.33;5.33;;;;;17.50;42.23;101500.88;4996377;28;45483;-54
2023/05/27 04:25:12;;;;;;;;;8.67;6.33;;;;;17.53;41.69;101514.88;4995824;28;45430;-56
2023/05/27 04:27:38;;;;;;;;;5.00;5.00;;;;;17.50;41.69;101504.38;4996233;28;45444;-54
2023/05/27 04:30:07;;;;;;;;;8.00;7.00;;;;;17.48;41.20;101508.06;4995857;28;45573;-55
2023/05/27 04:32:37;;;;;;;;;7.33;6.67;;;;;17.50;41.87;101495.53;4977992;28;46038;-56
2023/05/27 04:35:09;;;;;;;;;7.33;5.67;;;;;17.47;41.67;101498.38;4996424;28;45440;-54
2023/05/27 04:37:35;;;;;;;;;8.33;7.33;;;;;17.39;41.62;101509.38;4995748;28;45433;-55
2023/05/27 04:40:03;;;;;;;;;7.00;7.00;;;;;17.37;41.98;101498.81;4995872;28;46183;-53
2023/05/27 04:42:29;;;;;;;;;7.67;7.00;;;;;17.40;41.69;101498.66;4995716;28;45524;-57
2023/05/27 04:44:54;;;;;;;;;6.00;6.00;;;;;17.36;41.87;101504.22;4996110;28;45376;-52
2023/05/27 04:47:20;;;;;;;;;7.00;6.67;;;;;17.38;42.21;101505.84;4995698;28;50674;-57
2023/05/27 04:49:46;;;;;;;;;6.33;6.00;;;;;17.41;42.35;101500.38;4995544;28;45413;-53
2023/05/27 04:52:12;;;;;;;;;8.00;6.00;;;;;17.41;41.48;101496.88;4995726;28;45341;-53
2023/05/27 04:54:37;;;;;;;;;11.67;8.00;;;;;17.43;42.13;101497.63;4995511;28;45588;-53
2023/05/27 04:57:03;;;;;;;;;9.00;8.67;;;;;17.37;42.14;101496.13;4978026;28;45566;-52
2023/05/27 04:59:58;;;;;;;;;8.67;7.33;;;;;17.33;42.24;101488.38;4995498;28;45387;-54
2023/05/27 05:02:25;;;;;;;;;9.00;7.33;;;;;17.37;42.04;101484.66;4995330;28;45496;-55
2023/05/27 05:04:50;;;;;;;;;8.67;7.67;;;;;17.35;41.50;101489.19;4995607;28;45496;-57
2023/05/27 05:07:17;;;;;;;;;4.00;2.67;;;;;17.28;42.18;101485.97;4995440;28;47604;-56
2023/05/27 05:09:43;;;;;;;;;11.00;8.67;;;;;17.30;42.26;101488.53;4995319;28;45481;-53
2023/05/27 05:12:08;;;;;;;;;9.33;6.67;;;;;17.28;42.18;101488.63;4995456;28;45492;-56
2023/05/27 05:14:33;;;;;;;;;8.33;7.67;;;;;17.27;42.34;101492.22;4995455;28;47234;-54
2023/05/27 05:16:58;;;;;;;;;9.00;7.67;;;;;17.29;42.35;101494.81;4995108;28;45397;-56
2023/05/27 05:19:24;;;;;;;;;6.00;5.00;;;;;17.26;42.47;101494.97;4994804;28;64292;-56
2023/05/27 05:21:49;;;;;;;;;5.00;5.00;;;;;17.28;42.28;101503.72;4995179;28;45444;-58
2023/05/27 05:24:14;;;;;;;;;7.67;7.00;;;;;17.25;42.13;101504.75;4995336;28;45683;-54
2023/05/27 05:26:40;;;;;;;;;8.00;8.00;;;;;17.22;42.95;101499.53;4995499;28;45527;-55
2023/05/27 05:29:05;;;;;;;;;9.67;8.33;;;;;17.17;42.29;101497.13;4994976;28;45465;-55
2023/05/27 05:31:31;;;;;;;;;8.67;7.00;;;;;17.19;42.43;101503.25;4995356;28;45428;-51
2023/05/27 05:33:56;;;;;;;;;7.33;6.00;;;;;17.19;42.43;101497.03;4995409;28;45360;-55
2023/05/27 05:36:22;;;;;;;;;10.33;10.33;;;;;17.19;42.30;101505.91;4995046;28;45615;-55
2023/05/27 05:38:48;;;;;;;;;8.00;6.33;;;;;17.15;42.49;101500.81;4995311;28;46422;-55
2023/05/27 05:41:13;;;;;;;;;6.33;6.33;;;;;17.11;42.54;101504.53;4995386;28;45421;-53
2023/05/27 05:43:38;;;;;;;;;7.00;6.00;;;;;17.07;42.99;101498.50;4995197;28;45373;-56
2023/05/27 05:46:03;;;;;;;;;8.67;8.00;;;;;16.94;43.00;101478.78;4995086;28;45612;-57
2023/05/27 05:48:29;;;;;;;;;9.00;8.00;;;;;17.12;42.82;101503.59;4995017;28;46303;-54
2023/05/27 05:50:54;;;;;;;;;9.00;7.67;;;;;17.07;43.02;101501.16;4994834;28;45409;-56
2023/05/27 05:53:19;;;;;;;;;6.00;6.00;;;;;17.03;42.67;101504.03;4995093;28;45508;-55
2023/05/27 05:55:45;;;;;;;;;8.00;7.00;;;;;16.95;43.09;101493.75;4994826;28;45441;-54
2023/05/27 05:58:10;;;;;;;;;9.67;7.33;;;;;17.07;43.30;101500.31;4994522;28;53873;-53
2023/05/27 06:00:35;;;;;;;;;9.67;9.67;;;;;17.13;43.05;101505.31;4994498;28;45528;-50
2023/05/27 06:03:01;;;;;;;;;5.67;5.67;;;;;17.09;42.89;101487.81;4994875;28;45512;-53
2023/05/27 06:05:27;;;;;;;;;9.00;8.67;;;;;17.14;42.68;101504.38;4995185;28;45436;-57
2023/05/27 06:07:53;;;;;;;;;6.00;6.00;;;;;17.13;43.46;101507.97;4998465;28;46092;-57
2023/05/27 06:10:19;;;;;;;;;7.67;7.33;;;;;17.13;42.73;101500.84;4997955;28;45549;-56
2023/05/27 06:12:44;;;;;;;;;8.33;8.33;;;;;17.14;43.51;101491.97;4998244;28;45528;-55
2023/05/27 06:15:10;;;;;;;;;8.00;8.00;;;;;17.20;43.28;101502.28;4998107;28;45365;-55
2023/05/27 06:17:35;;;;;;;;;8.00;8.00;;;;;17.14;43.07;101491.09;4997704;28;46722;-56
2023/05/27 06:20:01;;;;;;;;;7.67;6.67;;;;;17.13;43.25;101498.19;4998060;28;45400;-56
2023/05/27 06:22:26;;;;;;;;;9.33;9.33;;;;;17.15;43.30;101499.00;4998097;28;45413;-55
2023/05/27 06:24:51;;;;;;;;;8.33;8.33;;;;;17.18;43.32;101508.63;4997322;28;50574;-56
2023/05/27 06:27:17;;;;;;;;;8.00;6.33;;;;;17.16;43.39;101500.72;4995612;28;46957;-52
2023/05/27 06:29:44;;;;;;;;;8.00;8.00;;;;;17.12;43.01;101499.16;4997880;28;45508;-55
2023/05/27 06:32:09;;;;;;;;;9.00;8.50;;;;;17.07;43.43;101484.34;4996647;28;45488;-54
2023/05/27 06:34:35;;;;;;;;;8.33;6.33;;;;;17.20;43.44;101504.09;4997709;28;45548;-53
2023/05/27 06:37:00;;;;;;;;;9.33;8.00;;;;;17.18;43.66;101493.53;4997622;28;46310;-53
2023/05/27 06:39:25;;;;;;;;;7.67;7.33;;;;;17.22;43.18;101503.09;4997752;28;45350;-55
2023/05/27 06:41:51;;;;;;;;;9.00;8.00;;;;;17.25;43.14;101501.19;4998404;28;45582;-55
2023/05/27 06:44:16;;;;;;;;;7.33;7.33;;;;;17.29;43.71;101505.44;4997622;28;45532;-56
2023/05/27 06:46:41;;;;;;;;;10.67;10.33;;;;;17.28;43.54;101503.72;4997753;28;45499;-55
2023/05/27 06:49:07;;;;;;;;;12.67;8.33;;;;;17.24;43.82;101503.00;4997635;28;45429;-54
2023/05/27 06:51:32;;;;;;;;;12.33;9.00;;;;;17.26;43.33;101498.47;4997531;28;45486;-52
2023/05/27 06:53:57;;;;;;;;;8.00;7.33;;;;;17.37;43.99;101493.47;4997750;28;45539;-57
2023/05/27 06:56:23;;;;;;;;;8.33;8.00;;;;;17.45;43.47;101490.44;4997332;28;46647;-51
2023/05/27 06:58:48;;;;;;;;;5.00;5.00;;;;;17.47;43.49;101487.72;4979693;28;45871;-55
2023/05/27 07:01:13;;;;;;;;;11.33;8.00;;;;;17.52;43.59;101477.72;4997376;28;45487;-55
2023/05/27 07:03:39;;;;;;;;;9.00;9.00;;;;;17.59;43.56;101493.25;4997506;28;45419;-58
2023/05/27 07:06:05;;;;;;;;;6.00;6.00;;;;;17.61;42.94;101495.88;4997344;28;45476;-56
2023/05/27 07:08:30;;;;;;;;;9.00;8.00;;;;;17.54;42.97;101483.81;4997322;28;45551;-56
2023/05/27 07:10:55;;;;;;;;;11.00;8.00;;;;;17.55;43.22;101496.19;4997546;28;45568;-57
2023/05/27 07:13:21;;;;;;;;;8.33;8.33;;;;;17.53;43.17;101488.25;4997141;28;45424;-52
2023/05/27 07:15:46;;;;;;;;;10.33;7.00;;;;;17.52;43.84;101483.91;4997055;28;45441;-55
2023/05/27 07:18:11;;;;;;;;;10.67;6.33;;;;;17.43;43.70;101469.22;4996707;28;45443;-53
2023/05/27 07:20:38;;;;;;;;;8.67;7.67;;;;;17.58;43.51;101482.72;4996667;28;58775;-54
2023/05/27 07:23:03;;;;;;;;;8.00;8.00;;;;;17.61;44.01;101475.44;4997022;28;45437;-58
2023/05/27 07:25:29;;;;;;;;;10.00;9.00;;;;;17.65;43.91;101466.38;4996778;28;45528;-54
2023/05/27 07:27:54;;;;;;;;;9.67;9.00;;;;;17.74;43.64;101459.72;4997140;28;45468;-53
2023/05/27 07:30:19;;;;;;;;;13.67;8.33;;;;;17.81;43.49;101457.63;4997154;28;45403;-57
2023/05/27 07:32:45;;;;;;;;;9.00;9.00;;;;;17.86;43.96;101456.44;4996884;28;45338;-54
2023/05/27 07:35:11;;;;;;;;;8.00;6.33;;;;;17.80;43.41;101450.59;4996929;28;45524;-55
2023/05/27 07:37:36;;;;;;;;;12.67;12.00;;;;;17.83;43.10;101456.59;4996793;28;45486;-57
2023/05/27 07:40:01;;;;;;;;;6.00;6.00;;;;;17.85;43.38;101459.19;4996562;28;49963;-55
2023/05/27 07:42:27;;;;;;;;;10.00;8.00;;;;;17.85;43.45;101452.06;4997364;28;45604;-55
2023/05/27 07:44:55;;;;;;;;;12.00;10.67;;;;;17.79;43.41;101446.22;4994994;28;52878;-52
2023/05/27 07:47:20;;;;;;;;;7.33;6.33;;;;;17.86;43.40;101447.59;4996768;28;45486;-53
2023/05/27 07:49:45;;;;;;;;;7.33;7.33;;;;;17.90;43.30;101449.16;4996809;28;45402;-54
2023/05/27 07:52:11;;;;;;;;;7.00;7.00;;;;;17.88;43.55;101453.69;4996981;28;45362;-56
2023/05/27 07:54:36;;;;;;;;;10.00;8.67;;;;;17.82;43.60;101430.09;4995154;28;47919;-58
2023/05/27 07:57:02;;;;;;;;;9.33;9.33;;;;;17.90;43.53;101441.19;4996595;28;45413;-54
2023/05/27 07:59:27;;;;;;;;;8.00;6.67;;;;;17.99;43.68;101453.13;4996609;28;45405;-55
2023/05/27 08:01:52;;;;;;;;;8.00;8.00;;;;;17.99;44.01;101445.16;4996655;28;45404;-53
2023/05/27 08:04:17;;;;;;;;;7.00;7.00;;;;;18.06;43.93;101446.56;4996468;28;45468;-55
2023/05/27 08:06:43;;;;;;;;;8.00;8.00;;;;;18.09;43.80;101446.41;4996188;28;45545;-55
2023/05/27 08:09:08;;;;;;;;;9.00;7.33;;;;;18.15;43.74;101447.88;4996715;28;45433;-54
2023/05/27 08:11:34;;;;;;;;;6.67;6.67;;;;;18.19;43.74;101444.97;4996319;28;45385;-55
2023/05/27 08:13:59;;;;;;;;;9.00;7.67;;;;;18.20;43.27;101436.03;4996219;28;45905;-56
2023/05/27 08:16:24;;;;;;;;;9.00;9.00;;;;;18.21;43.60;101427.09;4996163;28;45485;-56
2023/05/27 08:18:50;;;;;;;;;8.00;8.00;;;;;18.18;43.44;101410.41;4995990;28;45377;-57
2023/05/27 08:21:16;;;;;;;;;11.33;8.67;;;;;18.37;43.62;101432.44;4995097;28;45578;-57
2023/05/27 08:23:41;;;;;;;;;12.00;9.00;;;;;18.36;43.21;101432.53;4994467;28;47281;-54
2023/05/27 08:26:07;;;;;;;;;9.00;7.67;;;;;18.37;43.28;101431.59;4996272;28;45464;-58
2023/05/27 08:28:36;;;;;;;;;11.00;8.00;;;;;18.41;43.37;101427.81;4995421;28;45426;-57
2023/05/27 08:31:02;;;;;;;;;11.00;7.00;;;;;18.45;43.64;101422.22;4996094;28;45391;-55
2023/05/27 08:33:27;;;;;;;;;9.00;9.00;;;;;18.49;43.71;101425.59;4995931;28;45913;-57
2023/05/27 08:35:53;;;;;;;;;8.00;8.00;;;;;18.51;43.79;101416.56;4995719;28;45468;-54
2023/05/27 08:38:18;;;;;;;;;9.00;9.00;;;;;18.55;43.37;101417.25;4996227;28;45378;-57
2023/05/27 08:40:44;;;;;;;;;10.67;7.67;;;;;18.58;43.25;101417.06;4995989;28;45377;-53
2023/05/27 08:43:09;;;;;;;;;12.67;9.00;;;;;18.55;43.44;101411.94;4996320;28;45493;-54
2023/05/27 08:45:35;;;;;;;;;8.33;8.33;;;;;18.56;43.27;101397.66;4995823;28;45472;-53
2023/05/27 08:48:01;;;;;;;;;12.33;9.00;;;;;18.64;43.57;101410.53;4995819;28;45266;-57
2023/05/27 08:50:27;;;;;;;;;8.00;7.33;;;;;18.67;43.05;101410.38;4995930;28;45469;-54
2023/05/27 08:52:53;;;;;;;;;8.00;8.00;;;;;18.72;43.72;101413.63;4995370;28;48008;-52
2023/05/27 08:55:23;;;;;;;;;8.67;7.67;;;;;18.74;43.38;101411.75;4995697;28;45785;-52
2023/05/27 08:57:55;;;;;;;;;10.00;8.00;;;;;18.73;43.33;101402.91;4995565;28;45413;-56
2023/05/27 09:00:21;;;;;;;;;8.00;8.00;;;;;18.76;44.26;101405.41;4995716;28;45452;-57
2023/05/27 09:02:47;;;;;;;;;9.67;9.00;;;;;18.81;43.39;101406.97;4995408;28;45450;-50
2023/05/27 09:05:13;;;;;;;;;9.33;7.33;;;;;18.85;43.40;101405.84;4995376;28;45328;-56
2023/05/27 09:07:39;;;;;;;;;8.00;8.00;;;;;18.80;43.29;101392.78;4995672;28;45430;-58
2023/05/27 09:10:08;;;;;;;;;5.00;5.00;;;;;18.88;43.37;101400.34;4993840;28;45310;-57
2023/05/27 09:12:35;;;;;;;;;9.67;9.33;;;;;18.89;43.55;101402.06;4995460;28;45487;-54
2023/05/27 09:15:01;;;;;;;;;8.33;8.33;;;;;18.88;43.48;101392.34;4995263;28;45512;-53
2023/05/27 09:17:26;;;;;;;;;8.33;6.67;;;;;18.90;43.32;101390.44;4995366;28;45461;-53
2023/05/27 09:19:54;;;;;;;;;8.00;7.67;;;;;18.91;43.64;101381.50;4977764;28;45513;-52
2023/05/27 09:22:22;;;;;;;;;8.67;8.67;;;;;18.93;43.67;101369.78;4995288;28;46482;-51
2023/05/27 09:24:48;;;;;;;;;11.00;9.67;;;;;18.99;43.63;101376.56;4995180;28;45496;-54
2023/05/27 09:27:14;;;;;;;;;9.00;7.33;;;;;19.07;43.72;101381.47;4977494;28;45402;-51
2023/05/27 09:29:43;;;;;;;;;12.67;9.00;;;;;19.11;43.38;101375.88;4995336;28;45356;-53
2023/05/27 09:32:08;;;;;;;;;7.67;7.67;;;;;19.12;43.36;101366.06;4994934;28;46613;-54
2023/05/27 09:34:40;;;;;;;;;14.00;12.00;;;;;19.16;43.75;101370.28;4994948;28;45392;-54
2023/05/27 09:37:12;;;;;;;;;8.67;8.67;;;;;19.21;43.66;101365.53;4995080;28;45414;-54
2023/05/27 09:39:39;;;;;;;;;9.00;9.00;;;;;19.23;43.87;101360.09;4995012;28;45635;-54
2023/05/27 09:42:04;;;;;;;;;8.67;8.67;;;;;19.27;44.14;101353.63;4998183;28;45540;-56
2023/05/27 09:44:36;;;;;;;;;7.67;7.67;;;;;19.32;44.43;101349.75;4998379;28;45432;-55
2023/05/27 09:47:05;;;;;;;;;6.33;6.33;;;;;19.37;44.14;101346.78;4999132;28;45480;-54
2023/05/27 09:49:32;;;;;;;;;8.33;8.33;;;;;19.35;43.51;101346.03;4998712;28;45565;-55
2023/05/27 09:52:00;;;;;;;;;12.33;7.33;;;;;19.39;43.88;101336.88;4998250;28;46345;-55
2023/05/27 09:54:25;;;;;;;;;8.00;8.00;;;;;19.43;43.26;101341.94;4998482;28;45451;-56
2023/05/27 09:56:52;;;;;;;;;13.00;10.00;;;;;19.40;43.61;101339.47;4998555;28;45414;-57
2023/05/27 09:59:17;;;;;;;;;10.67;10.33;;;;;19.47;43.45;101344.41;4981039;28;45430;-55
2023/05/27 10:01:46;;;;;;;;;10.33;10.33;;;;;19.50;43.61;101345.06;4998070;28;45427;-56
2023/05/27 10:04:14;;;;;;;;;11.67;9.33;;;;;19.57;44.20;101346.44;4998394;28;45428;-54
2023/05/27 10:06:40;;;;;;;;;12.33;12.00;;;;;19.61;44.14;101339.09;4998213;28;45478;-54
2023/05/27 10:09:06;;;;;;;;;8.33;8.00;;;;;19.68;43.02;101345.81;4998280;28;45476;-56
2023/05/27 10:11:36;;;;;;;;;6.00;6.00;;;;;19.69;43.86;101328.81;4998005;28;45515;-56
2023/05/27 10:14:03;;;;;;;;;10.67;9.33;;;;;19.70;43.40;101319.88;4998154;28;45411;-55
2023/05/27 10:16:28;;;;;;;;;8.33;8.33;;;;;19.76;43.68;101330.19;4998306;28;45449;-54
2023/05/27 10:18:56;;;;;;;;;8.33;7.33;;;;;19.84;43.52;101333.22;4984433;28;45499;-53
2023/05/27 10:21:26;;;;;;;;;21.00;18.00;;;;;19.89;43.68;101330.28;4997982;28;45529;-55
2023/05/27 10:24:02;;;;;;;;;10.00;10.00;;;;;19.90;43.84;101323.97;4997600;28;45522;-56
2023/05/27 10:26:40;;;;;;;;;7.67;7.33;;;;;19.91;43.91;101322.16;4998196;28;45398;-54
2023/05/27 10:29:16;;;;;;;;;10.00;10.00;;;;;19.96;43.77;101320.94;4966388;28;45479;-55
2023/05/27 10:31:48;;;;;;;;;11.33;11.33;;;;;19.98;43.49;101319.00;4997986;28;45524;-54
2023/05/27 10:34:14;;;;;;;;;9.00;9.00;;;;;20.02;43.37;101314.34;4997771;28;45429;-57
2023/05/27 10:36:40;;;;;;;;;8.00;8.00;;;;;20.08;43.27;101314.78;4997872;28;45437;-55
2023/05/27 10:39:12;;;;;;;;;10.67;9.33;;;;;20.14;43.71;101320.72;4997769;28;45556;-57
2023/05/27 10:41:49;;;;;;;;;11.00;9.33;;;;;20.18;43.27;101317.75;4998022;28;45588;-55
2023/05/27 10:44:29;;;;;;;;;12.00;10.00;;;;;20.21;43.07;101319.38;4997676;28;45358;-56
2023/05/27 10:47:02;;;;;;;;;9.67;9.67;;;;;20.16;43.33;101300.94;4997972;28;45461;-55
2023/05/27 10:49:35;;;;;;;;;8.67;7.67;;;;;20.29;43.62;101309.91;4997833;28;45596;-53
2023/05/27 10:52:05;;;;;;;;;7.33;6.67;;;;;20.33;43.01;101301.69;4995754;28;45438;-52
2023/05/27 10:54:30;;;;;;;;;9.33;7.33;;;;;20.34;42.78;101288.22;4997520;28;45516;-54
2023/05/27 10:56:56;;;;;;;;;13.00;10.67;;;;;20.41;43.46;101289.53;4997248;28;48816;-56
2023/05/27 10:59:22;;;;;;;;;10.00;9.00;;;;;20.42;42.82;101285.91;4997546;28;45612;-56
2023/05/27 11:01:53;;;;;;;;;12.67;9.67;;;;;20.50;43.04;101283.59;4997213;28;45739;-55
2023/05/27 11:04:19;;;;;;;;;14.33;13.33;;;;;20.52;43.39;101278.13;4997345;28;45520;-55
2023/05/27 11:06:56;;;;;;;;;13.00;11.67;;;;;20.55;43.37;101275.28;4997319;28;45477;-52
2023/05/27 11:09:22;;;;;;;;;9.00;9.00;;;;;20.57;42.74;101265.34;4997577;28;45517;-57
2023/05/27 11:11:47;;;;;;;;;10.00;10.00;;;;;20.56;42.80;101262.78;4997014;28;46351;-56
2023/05/27 11:14:12;;;;;;;;;10.00;10.00;;;;;20.64;42.40;101274.69;4996927;28;53466;-55
2023/05/27 11:16:38;;;;;;;;;12.00;9.67;;;;;20.67;42.52;101262.94;4996480;28;51464;-53
2023/05/27 11:19:03;;;;;;;;;8.67;8.67;;;;;20.72;42.61;101268.81;4996818;28;46772;-54